Time;durP1;ratioP1;P1;durP2;ratioP2;P2;SDS_P1;SDS_P2;PMS_P1;PMS_P2;Temp;Humidity;BMP_temperature;BMP_pressure;BME280_temperature;BME280_humidity;BME280_pressure;Samples;Min_cycle;Max_cycle;Signal;HPM_P1;HPM_P2
2021/10/11 09:43:23;;;;;;;2.53;1.70;;;;;;;;;;6180125;22;21560;-79
2021/10/11 09:45:50;;;;;;;2.92;1.67;;;;;;;;;;6186169;23;20078;-80
2021/10/11 09:48:16;;;;;;;2.92;1.60;;;;;;;;;;6187300;23;20001;-79
2021/10/11 09:50:42;;;;;;;3.55;1.70;;;;;;;;;;6188172;23;20012;-79
2021/10/11 09:53:11;;;;;;;4.72;1.63;;;;;;;;;;6188231;23;20009;-78
2021/10/11 09:55:38;;;;;;;1.75;1.20;;;;;;;;;;6186142;23;20013;-80
2021/10/11 09:58:09;;;;;;;3.50;1.50;;;;;;;;;;6187704;23;20039;-80
2021/10/11 10:00:35;;;;;;;2.47;1.60;;;;;;;;;;6187994;23;20009;-80
2021/10/11 10:03:00;;;;;;;4.57;1.60;;;;;;;;;;6187400;23;20431;-80
2021/10/11 10:05:48;;;;;;;3.42;1.48;;;;;;;;;;6187464;23;20021;-79
2021/10/11 10:08:20;;;;;;;2.25;1.40;;;;;;;;;;6187815;23;20039;-76
2021/10/11 10:10:48;;;;;;;2.40;1.35;;;;;;;;;;6187573;23;20379;-78
2021/10/11 10:13:18;;;;;;;5.45;1.83;;;;;;;;;;6187576;23;20005;-79
2021/10/11 10:15:45;;;;;;;3.65;1.67;;;;;;;;;;6187430;23;20005;-78
2021/10/11 10:18:14;;;;;;;3.85;1.55;;;;;;;;;;6186213;23;20084;-77
2021/10/11 10:20:53;;;;;;;2.40;1.40;;;;;;;;;;6187606;23;20084;-79
2021/10/11 10:23:22;;;;;;;;;;;;;;;;;;6188143;23;20131;-79
2021/10/11 10:25:47;;;;;;;2.30;1.50;;;;;;;;;;6187491;23;20346;-80
2021/10/11 10:28:14;;;;;;;1.83;1.67;;;;;;;;;;6187696;23;20005;-78
2021/10/11 10:30:40;;;;;;;3.70;1.77;;;;;;;;;;6187566;23;20001;-80
2021/10/11 10:33:08;;;;;;;1.40;1.30;;;;;;;;;;6187276;23;20055;-78
2021/10/11 10:35:44;;;;;;;2.05;1.67;;;;;;;;;;6187853;23;20028;-78
2021/10/11 10:38:20;;;;;;;3.83;1.50;;;;;;;;;;6187712;23;20136;-78
2021/10/11 10:40:46;;;;;;;2.47;1.42;;;;;;;;;;6187547;23;20008;-79
2021/10/11 10:43:15;;;;;;;2.25;1.50;;;;;;;;;;6187291;23;20005;-79
2021/10/11 10:45:42;;;;;;;2.50;1.55;;;;;;;;;;6188010;23;20037;-79
2021/10/11 10:48:28;;;;;;;2.22;1.70;;;;;;;;;;6187797;23;20029;-80
2021/10/11 10:50:58;;;;;;;4.53;1.35;;;;;;;;;;6186709;23;20059;-75
2021/10/11 10:53:28;;;;;;;1.98;1.58;;;;;;;;;;6185910;23;20005;-78
2021/10/11 10:55:54;;;;;;;2.17;1.52;;;;;;;;;;6187681;23;20005;-78
2021/10/11 10:58:22;;;;;;;2.67;1.52;;;;;;;;;;6187326;23;20005;-78
2021/10/11 11:00:47;;;;;;;2.38;1.45;;;;;;;;;;6187102;23;20439;-79
2021/10/11 11:03:14;;;;;;;2.15;1.60;;;;;;;;;;6187486;23;20072;-78
2021/10/11 11:05:42;;;;;;;3.33;1.63;;;;;;;;;;6185753;23;20009;-77
2021/10/11 11:08:09;;;;;;;2.60;1.60;;;;;;;;;;6187454;23;20016;-78
2021/10/11 11:10:37;;;;;;;1.95;1.67;;;;;;;;;;6185446;23;20404;-78
2021/10/11 11:13:16;;;;;;;3.03;1.75;;;;;;;;;;6187334;23;20044;-78
2021/10/11 11:15:52;;;;;;;2.42;2.03;;;;;;;;;;6187132;23;20005;-78
2021/10/11 11:18:19;;;;;;;1.85;1.40;;;;;;;;;;6187081;23;20008;-77
2021/10/11 11:20:46;;;;;;;2.63;1.70;;;;;;;;;;6187462;23;20084;-78
2021/10/11 11:23:19;;;;;;;4.50;1.40;;;;;;;;;;6187155;23;20488;-78
2021/10/11 11:25:46;;;;;;;4.85;1.75;;;;;;;;;;6187427;23;20005;-78
2021/10/11 11:28:14;;;;;;;2.72;1.60;;;;;;;;;;6187143;23;20368;-78
2021/10/11 11:30:40;;;;;;;2.53;1.70;;;;;;;;;;6185330;23;20012;-77
2021/10/11 11:33:09;;;;;;;2.78;1.38;;;;;;;;;;6187278;23;20372;-75
2021/10/11 11:35:36;;;;;;;;;;;;;;;;;;6187653;23;20016;-76
2021/10/11 11:38:05;;;;;;;1.25;1.10;;;;;;;;;;6186834;23;19912;-76
2021/10/11 11:40:36;;;;;;;1.55;1.20;;;;;;;;;;6186840;23;20424;-76
2021/10/11 11:43:05;;;;;;;6.25;1.17;;;;;;;;;;6186924;23;20431;-76
2021/10/11 11:45:49;;;;;;;5.95;1.58;;;;;;;;;;6186625;23;20037;-76
2021/10/11 11:48:28;;;;;;;3.47;1.30;;;;;;;;;;6187037;23;20015;-76
2021/10/11 16:15:38;;;;;;;7.03;4.70;;;;;;;;;;6186917;23;20336;-87
2021/10/11 16:18:04;;;;;;;7.47;4.25;;;;;;;;;;6217641;23;20064;-95
2021/10/11 16:20:29;;;;;;;5.82;4.32;;;;;;;;;;6217761;23;20007;-96
2021/10/11 16:22:55;;;;;;;7.22;3.75;;;;;;;;;;6218244;23;20420;-94
2021/10/11 16:25:20;;;;;;;6.38;4.75;;;;;;;;;;6219096;23;20043;-95
2021/10/11 16:27:46;;;;;;;6.18;4.25;;;;;;;;;;6217223;23;20083;-86
2021/10/11 16:30:14;;;;;;;8.43;4.43;;;;;;;;;;6218080;23;20016;-80
2021/10/11 16:32:40;;;;;;;5.38;4.22;;;;;;;;;;6242106;23;20027;-87
2021/10/11 16:35:06;;;;;;;4.70;3.80;;;;;;;;;;6241988;23;20001;-82
2021/10/11 16:37:31;;;;;;;6.10;4.18;;;;;;;;;;6216632;23;20000;-80
2021/10/11 16:39:56;;;;;;;6.90;4.00;;;;;;;;;;6218914;23;20001;-86
2021/10/11 16:42:22;;;;;;;7.72;3.95;;;;;;;;;;6217209;23;20060;-83
2021/10/11 16:44:47;;;;;;;7.47;3.88;;;;;;;;;;6217726;23;20339;-84
2021/10/11 16:47:13;;;;;;;5.35;3.97;;;;;;;;;;6216698;23;20408;-86
2021/10/11 16:49:41;;;;;;;7.97;3.97;;;;;;;;;;6216074;23;20005;-87
2021/10/11 16:52:07;;;;;;;4.85;3.55;;;;;;;;;;6217390;23;20015;-80
2021/10/11 16:54:32;;;;;;;6.22;4.22;;;;;;;;;;6240281;23;20384;-88
2021/10/11 16:56:57;;;;;;;9.30;4.78;;;;;;;;;;6216502;23;20005;-86
2021/10/11 16:59:23;;;;;;;7.68;4.60;;;;;;;;;;6240187;23;20008;-91
2021/10/11 17:01:48;;;;;;;6.75;3.92;;;;;;;;;;6216604;23;20005;-79
2021/10/11 17:04:14;;;;;;;6.13;3.70;;;;;;;;;;6214845;23;20438;-84
2021/10/11 17:06:40;;;;;;;4.88;3.72;;;;;;;;;;6216218;23;20004;-83
2021/10/11 17:09:05;;;;;;;4.15;3.50;;;;;;;;;;6216181;23;20004;-80
2021/10/11 17:11:31;;;;;;;5.32;3.60;;;;;;;;;;6216220;23;20000;-81
2021/10/11 17:13:59;;;;;;;5.63;4.18;;;;;;;;;;6216249;23;20059;-85
2021/10/11 17:16:25;;;;;;;4.88;3.40;;;;;;;;;;6216009;23;20009;-83
2021/10/11 17:18:51;;;;;;;6.68;4.50;;;;;;;;;;6216192;23;20026;-83
2021/10/11 17:21:16;;;;;;;7.00;4.40;;;;;;;;;;6216024;23;20005;-85
2021/10/11 17:23:42;;;;;;;7.65;4.45;;;;;;;;;;6216033;23;20004;-82
2021/10/11 17:26:07;;;;;;;7.65;4.32;;;;;;;;;;6216331;23;20438;-86
2021/10/11 17:28:34;;;;;;;6.57;4.07;;;;;;;;;;6214518;23;20047;-90
2021/10/11 17:30:59;;;;;;;7.25;4.13;;;;;;;;;;6240837;23;20012;-85
2021/10/11 17:33:25;;;;;;;7.05;4.60;;;;;;;;;;6215942;23;20554;-82
2021/10/11 17:35:50;;;;;;;6.18;4.75;;;;;;;;;;6215925;23;20079;-83
2021/10/11 17:38:16;;;;;;;5.90;4.10;;;;;;;;;;6216264;23;20004;-83
2021/10/11 17:40:41;;;;;;;5.88;3.88;;;;;;;;;;6216161;23;20005;-85
2021/10/11 17:43:07;;;;;;;5.80;3.88;;;;;;;;;;6215835;23;20004;-83
2021/10/11 17:45:32;;;;;;;5.88;3.90;;;;;;;;;;6216094;23;20032;-85
2021/10/11 17:47:59;;;;;;;9.45;4.35;;;;;;;;;;6216122;23;20007;-91
2021/10/11 17:50:27;;;;;;;4.28;3.58;;;;;;;;;;6216215;23;20000;-89
2021/10/11 17:52:55;;;;;;;4.97;3.88;;;;;;;;;;6215600;23;20076;-83
2021/10/11 17:55:25;;;;;;;5.25;4.15;;;;;;;;;;6215854;23;20420;-80
2021/10/11 17:57:51;;;;;;;6.63;4.45;;;;;;;;;;6216289;23;20008;-85
2021/10/11 18:00:17;;;;;;;5.60;3.50;;;;;;;;;;6216705;23;20024;-81
2021/10/11 18:02:42;;;;;;;6.90;4.18;;;;;;;;;;6217546;23;20008;-79
2021/10/11 18:05:08;;;;;;;8.43;4.57;;;;;;;;;;6218217;23;20007;-81
2021/10/11 18:07:34;;;;;;;6.95;4.75;;;;;;;;;;6218577;23;20032;-80
2021/10/11 18:10:02;;;;;;;8.73;5.75;;;;;;;;;;6218094;23;20004;-80
2021/10/11 18:12:28;;;;;;;8.50;4.50;;;;;;;;;;6217963;23;20005;-83
2021/10/11 18:14:55;;;;;;;7.95;4.88;;;;;;;;;;6217950;23;20092;-81
2021/10/11 18:17:22;;;;;;;8.15;5.40;;;;;;;;;;6217700;23;20013;-85
2021/10/11 18:19:47;;;;;;;5.95;3.50;;;;;;;;;;6217857;23;20411;-87
2021/10/11 18:22:13;;;;;;;8.48;3.80;;;;;;;;;;6217569;23;20028;-88
2021/10/11 18:24:39;;;;;;;7.53;3.97;;;;;;;;;;6217696;23;20005;-81
2021/10/11 18:27:05;;;;;;;5.75;3.63;;;;;;;;;;6217942;23;20423;-94
2021/10/11 18:29:30;;;;;;;7.72;3.95;;;;;;;;;;6217527;23;20372;-80
2021/10/11 18:31:57;;;;;;;6.25;3.80;;;;;;;;;;6217545;23;20028;-79
2021/10/11 18:34:22;;;;;;;4.53;3.70;;;;;;;;;;6217761;23;20092;-79
2021/10/11 18:36:48;;;;;;;8.65;3.85;;;;;;;;;;6217838;23;20420;-87
2021/10/11 18:39:13;;;;;;;6.50;4.00;;;;;;;;;;6217920;23;20340;-87
2021/10/11 18:41:39;;;;;;;6.35;4.75;;;;;;;;;;6241859;23;20066;-87
2021/10/11 18:44:04;;;;;;;8.15;4.97;;;;;;;;;;6217687;23;20427;-87
2021/10/11 18:46:31;;;;;;;4.28;3.45;;;;;;;;;;6217585;23;20008;-83
2021/10/11 18:48:56;;;;;;;7.45;3.70;;;;;;;;;;6217988;23;20039;-87
2021/10/11 18:51:22;;;;;;;7.70;4.00;;;;;;;;;;6217722;23;20416;-80
2021/10/11 18:53:48;;;;;;;6.03;3.83;;;;;;;;;;6217677;23;20032;-79
2021/10/11 18:56:14;;;;;;;8.13;3.78;;;;;;;;;;6217500;23;20079;-86
2021/10/11 18:58:39;;;;;;;6.15;3.83;;;;;;;;;;6217521;23;20032;-88
2021/10/11 19:01:05;;;;;;;5.85;3.78;;;;;;;;;;6217513;23;20028;-87
2021/10/11 19:03:30;;;;;;;5.97;4.18;;;;;;;;;;6217446;23;20008;-79
2021/10/11 19:05:56;;;;;;;6.45;3.83;;;;;;;;;;6218181;23;20420;-80
2021/10/11 19:08:22;;;;;;;5.43;3.80;;;;;;;;;;6217938;23;20011;-83
2021/10/11 19:10:47;;;;;;;7.70;5.00;;;;;;;;;;6217639;23;20331;-87
2021/10/11 19:13:14;;;;;;;6.05;4.32;;;;;;;;;;6218078;23;20016;-82
2021/10/11 19:15:44;;;;;;;5.82;4.05;;;;;;;;;;6217450;23;20013;-79
2021/10/11 19:18:11;;;;;;;5.47;3.85;;;;;;;;;;6217542;23;20005;-79
2021/10/11 19:20:37;;;;;;;5.60;3.78;;;;;;;;;;6217583;23;20005;-80
2021/10/11 19:23:04;;;;;;;6.25;3.50;;;;;;;;;;6217536;23;20015;-80
2021/10/11 19:25:29;;;;;;;5.90;3.67;;;;;;;;;;6217726;23;20004;-90
2021/10/11 19:27:59;;;;;;;7.60;4.32;;;;;;;;;;6218227;23;20436;-84
2021/10/11 19:30:28;;;;;;;7.10;4.78;;;;;;;;;;6217864;23;20079;-94
2021/10/11 19:32:54;;;;;;;5.28;4.15;;;;;;;;;;6241513;23;20015;-88
2021/10/11 19:35:21;;;;;;;6.15;3.50;;;;;;;;;;6218907;23;20005;-90
2021/10/11 19:37:50;;;;;;;5.85;3.70;;;;;;;;;;6221963;23;20008;-90
2021/10/11 19:40:16;;;;;;;6.35;3.70;;;;;;;;;;6218164;23;20007;-93
2021/10/11 19:42:42;;;;;;;5.10;3.60;;;;;;;;;;6216365;23;20004;-94
2021/10/11 19:45:09;;;;;;;4.97;3.80;;;;;;;;;;6219529;23;20004;-94
2021/10/11 19:47:34;;;;;;;5.05;3.25;;;;;;;;;;6218519;23;20027;-87
2021/10/11 19:50:00;;;;;;;7.03;3.90;;;;;;;;;;6217737;23;20000;-78
2021/10/11 19:52:26;;;;;;;7.28;3.50;;;;;;;;;;6217415;23;20003;-77
2021/10/11 19:54:51;;;;;;;6.85;4.28;;;;;;;;;;6218870;23;20313;-82
2021/10/11 19:57:17;;;;;;;7.15;4.65;;;;;;;;;;6219768;23;20001;-90
2021/10/11 19:59:43;;;;;;;4.75;3.78;;;;;;;;;;6217502;23;20005;-92
2021/10/11 20:02:11;;;;;;;5.78;3.80;;;;;;;;;;6216611;23;20316;-93
2021/10/11 20:04:37;;;;;;;6.65;3.67;;;;;;;;;;6217998;23;20069;-90
2021/10/11 20:07:05;;;;;;;5.28;3.65;;;;;;;;;;6243874;23;20012;-84
2021/10/11 20:09:32;;;;;;;5.25;3.30;;;;;;;;;;6247668;23;20079;-88
2021/10/11 20:11:57;;;;;;;5.80;3.15;;;;;;;;;;6217773;23;20001;-83
2021/10/11 20:14:23;;;;;;;4.20;3.33;;;;;;;;;;6217547;23;20420;-78
2021/10/11 20:16:51;;;;;;;5.97;3.47;;;;;;;;;;6219369;23;20012;-87
2021/10/11 20:19:17;;;;;;;7.20;3.78;;;;;;;;;;6224422;23;20040;-84
2021/10/11 20:21:42;;;;;;;4.75;3.67;;;;;;;;;;6225065;23;20055;-81
2021/10/11 20:24:09;;;;;;;7.40;4.32;;;;;;;;;;6225149;23;20009;-80
2021/10/11 20:26:36;;;;;;;11.13;5.90;;;;;;;;;;6217031;23;20011;-79
2021/10/11 20:29:03;;;;;;;7.00;4.25;;;;;;;;;;6216999;23;20324;-84
2021/10/11 20:31:28;;;;;;;7.28;4.65;;;;;;;;;;6217102;23;20328;-78
2021/10/11 20:33:54;;;;;;;6.97;5.18;;;;;;;;;;6217258;23;20000;-84
2021/10/11 20:36:19;;;;;;;6.45;4.97;;;;;;;;;;6216708;23;20035;-88
2021/10/11 20:38:45;;;;;;;5.40;4.18;;;;;;;;;;6219184;23;20372;-90
2021/10/11 20:41:10;;;;;;;5.63;4.30;;;;;;;;;;6219399;23;20067;-85
2021/10/11 20:43:36;;;;;;;6.78;4.13;;;;;;;;;;6217315;23;20005;-83
2021/10/11 20:46:01;;;;;;;10.63;4.25;;;;;;;;;;6216821;23;20001;-85
2021/10/11 20:48:27;;;;;;;4.47;3.45;;;;;;;;;;6216654;23;19993;-80
2021/10/11 20:50:53;;;;;;;6.57;4.03;;;;;;;;;;6216870;23;20004;-92
2021/10/11 20:53:18;;;;;;;6.35;4.68;;;;;;;;;;6216884;23;20027;-80
2021/10/11 20:55:44;;;;;;;6.60;4.88;;;;;;;;;;6216301;23;19997;-85
2021/10/11 20:58:11;;;;;;;7.53;4.70;;;;;;;;;;6216329;23;20031;-80
2021/10/11 21:00:40;;;;;;;7.53;4.38;;;;;;;;;;6240200;23;20005;-86
2021/10/11 21:03:07;;;;;;;6.47;4.20;;;;;;;;;;6216550;23;20011;-80
2021/10/11 21:05:33;;;;;;;6.72;4.28;;;;;;;;;;6216236;23;20004;-84
2021/10/11 21:07:58;;;;;;;8.65;5.43;;;;;;;;;;6216360;23;20443;-82
2021/10/11 21:10:23;;;;;;;8.02;5.13;;;;;;;;;;6216375;23;20000;-80
2021/10/11 21:12:49;;;;;;;7.40;5.50;;;;;;;;;;6216064;23;20005;-80
2021/10/11 21:15:14;;;;;;;7.93;5.30;;;;;;;;;;6216410;23;20001;-81
2021/10/11 21:17:40;;;;;;;9.15;4.55;;;;;;;;;;6214928;23;20084;-82
2021/10/11 21:20:06;;;;;;;7.88;5.13;;;;;;;;;;6216485;23;20008;-84
2021/10/11 21:22:32;;;;;;;6.78;5.07;;;;;;;;;;6216184;23;20071;-88
2021/10/11 21:24:57;;;;;;;8.25;5.43;;;;;;;;;;6216225;23;20086;-80
2021/10/11 21:27:23;;;;;;;8.00;5.68;;;;;;;;;;6216544;23;20047;-86
2021/10/11 21:29:48;;;;;;;7.90;5.45;;;;;;;;;;6216564;23;20325;-80
2021/10/11 21:32:13;;;;;;;9.05;4.90;;;;;;;;;;6216057;23;20337;-83
2021/10/11 21:34:39;;;;;;;8.40;5.40;;;;;;;;;;6215668;23;20328;-89
2021/10/11 21:37:04;;;;;;;9.13;5.50;;;;;;;;;;6214888;23;20000;-80
2021/10/11 21:39:32;;;;;;;7.68;5.80;;;;;;;;;;6216442;23;20004;-89
2021/10/11 21:41:58;;;;;;;6.88;4.45;;;;;;;;;;6216523;23;20035;-87
2021/10/11 21:44:23;;;;;;;6.07;5.18;;;;;;;;;;6214853;23;20013;-90
2021/10/11 21:46:49;;;;;;;6.30;5.25;;;;;;;;;;6240174;23;20009;-88
2021/10/11 21:49:14;;;;;;;10.05;5.03;;;;;;;;;;6216565;23;20008;-84
2021/10/11 21:51:40;;;;;;;8.60;4.93;;;;;;;;;;6216287;23;20059;-89
2021/10/11 21:54:05;;;;;;;5.97;4.65;;;;;;;;;;6216804;23;20084;-84
2021/10/11 21:56:32;;;;;;;8.30;5.55;;;;;;;;;;6216212;23;20055;-85
2021/10/11 21:58:57;;;;;;;7.45;5.05;;;;;;;;;;6216418;23;20028;-81
2021/10/11 22:01:23;;;;;;;6.28;4.50;;;;;;;;;;6216457;23;20305;-83
2021/10/11 22:03:48;;;;;;;5.90;4.30;;;;;;;;;;6216041;23;20008;-81
2021/10/11 22:06:13;;;;;;;6.97;4.13;;;;;;;;;;6216187;23;20416;-79
2021/10/11 22:08:39;;;;;;;6.57;4.47;;;;;;;;;;6216245;23;20004;-82
2021/10/11 22:11:04;;;;;;;9.38;5.30;;;;;;;;;;6216122;23;20012;-87
2021/10/11 22:13:31;;;;;;;7.63;4.60;;;;;;;;;;6216144;23;20039;-89
2021/10/11 22:15:57;;;;;;;9.70;4.45;;;;;;;;;;6215981;23;20016;-81
2021/10/11 22:18:22;;;;;;;7.50;5.07;;;;;;;;;;6216406;23;20011;-87
2021/10/11 22:20:47;;;;;;;9.10;5.63;;;;;;;;;;6239883;23;20004;-79
2021/10/11 22:23:14;;;;;;;7.68;5.65;;;;;;;;;;6216165;23;20001;-81
2021/10/11 22:25:39;;;;;;;7.93;5.20;;;;;;;;;;6215988;23;20078;-85
2021/10/11 22:28:06;;;;;;;6.82;4.85;;;;;;;;;;6216948;23;20400;-85
2021/10/11 22:30:32;;;;;;;6.68;4.82;;;;;;;;;;6216131;23;20030;-79
2021/10/11 22:32:59;;;;;;;6.00;4.45;;;;;;;;;;6239615;23;20020;-82
2021/10/11 22:35:25;;;;;;;5.75;4.25;;;;;;;;;;6215925;23;19997;-87
2021/10/11 22:37:51;;;;;;;8.38;4.70;;;;;;;;;;6215960;23;20071;-85
2021/10/11 22:40:16;;;;;;;6.88;5.20;;;;;;;;;;6215846;23;20332;-85
2021/10/11 22:42:42;;;;;;;9.73;5.30;;;;;;;;;;6215816;23;20004;-83
2021/10/11 22:45:08;;;;;;;6.00;5.03;;;;;;;;;;6216580;23;20055;-79
2021/10/11 22:47:34;;;;;;;7.53;5.20;;;;;;;;;;6217809;23;20001;-80
2021/10/11 22:50:00;;;;;;;8.80;6.03;;;;;;;;;;6218135;23;20011;-79
2021/10/11 22:52:30;;;;;;;8.25;5.13;;;;;;;;;;6217903;23;20004;-81
